sensor_id;sensor_type;location;lat;lon;timestamp;P1;durP1;ratioP1;P2;durP2;ratioP2
17369;SDS011;8802;52.402;4.920;2024-01-11T00:00:18;13.88;;;9.80;;
17369;SDS011;8802;52.402;4.920;2024-01-11T00:02:45;12.05;;;8.95;;
17369;SDS011;8802;52.402;4.920;2024-01-11T00:05:12;12.75;;;8.65;;
17369;SDS011;8802;52.402;4.920;2024-01-11T00:07:39;13.73;;;9.13;;
17369;SDS011;8802;52.402;4.920;2024-01-11T00:10:06;12.05;;;8.98;;
17369;SDS011;8802;52.402;4.920;2024-01-11T00:12:33;11.35;;;8.95;;
17369;SDS011;8802;52.402;4.920;2024-01-11T00:15:00;12.68;;;8.75;;
17369;SDS011;8802;52.402;4.920;2024-01-11T00:17:29;12.93;;;9.80;;
17369;SDS011;8802;52.402;4.920;2024-01-11T00:19:55;12.07;;;9.98;;
17369;SDS011;8802;52.402;4.920;2024-01-11T00:22:22;13.77;;;9.90;;
17369;SDS011;8802;52.402;4.920;2024-01-11T00:24:49;13.52;;;10.52;;
17369;SDS011;8802;52.402;4.920;2024-01-11T00:27:16;13.15;;;10.23;;
17369;SDS011;8802;52.402;4.920;2024-01-11T00:29:43;13.27;;;9.80;;
17369;SDS011;8802;52.402;4.920;2024-01-11T00:32:10;11.25;;;8.95;;
17369;SDS011;8802;52.402;4.920;2024-01-11T00:34:38;14.57;;;10.43;;
17369;SDS011;8802;52.402;4.920;2024-01-11T00:37:05;14.68;;;11.25;;
17369;SDS011;8802;52.402;4.920;2024-01-11T00:39:31;13.75;;;11.18;;
17369;SDS011;8802;52.402;4.920;2024-01-11T00:41:58;12.93;;;10.07;;
17369;SDS011;8802;52.402;4.920;2024-01-11T00:44:25;13.95;;;11.82;;
17369;SDS011;8802;52.402;4.920;2024-01-11T00:46:52;13.20;;;10.80;;
17369;SDS011;8802;52.402;4.920;2024-01-11T00:49:20;14.85;;;10.98;;
17369;SDS011;8802;52.402;4.920;2024-01-11T00:51:48;13.05;;;10.13;;
17369;SDS011;8802;52.402;4.920;2024-01-11T00:54:15;13.48;;;10.40;;
17369;SDS011;8802;52.402;4.920;2024-01-11T00:56:42;14.38;;;9.77;;
17369;SDS011;8802;52.402;4.920;2024-01-11T00:59:09;13.23;;;10.82;;
17369;SDS011;8802;52.402;4.920;2024-01-11T01:01:35;14.23;;;11.52;;
17369;SDS011;8802;52.402;4.920;2024-01-11T01:04:02;13.43;;;10.73;;
17369;SDS011;8802;52.402;4.920;2024-01-11T01:06:29;15.00;;;10.90;;
17369;SDS011;8802;52.402;4.920;2024-01-11T01:08:57;14.90;;;10.45;;
17369;SDS011;8802;52.402;4.920;2024-01-11T01:11:24;16.35;;;12.02;;
17369;SDS011;8802;52.402;4.920;2024-01-11T01:13:51;15.73;;;12.00;;
17369;SDS011;8802;52.402;4.920;2024-01-11T01:16:18;16.30;;;12.15;;
17369;SDS011;8802;52.402;4.920;2024-01-11T01:18:45;15.45;;;10.98;;
17369;SDS011;8802;52.402;4.920;2024-01-11T01:21:12;14.50;;;10.77;;
17369;SDS011;8802;52.402;4.920;2024-01-11T01:23:38;15.93;;;12.07;;
17369;SDS011;8802;52.402;4.920;2024-01-11T01:26:07;13.73;;;11.95;;
17369;SDS011;8802;52.402;4.920;2024-01-11T01:28:34;18.38;;;14.10;;
17369;SDS011;8802;52.402;4.920;2024-01-11T01:31:01;16.27;;;12.20;;
17369;SDS011;8802;52.402;4.920;2024-01-11T01:33:28;15.90;;;11.55;;
17369;SDS011;8802;52.402;4.920;2024-01-11T01:35:55;17.77;;;12.75;;
17369;SDS011;8802;52.402;4.920;2024-01-11T01:38:21;15.55;;;12.38;;
17369;SDS011;8802;52.402;4.920;2024-01-11T01:40:49;14.15;;;11.20;;
17369;SDS011;8802;52.402;4.920;2024-01-11T01:43:17;13.73;;;11.23;;
17369;SDS011;8802;52.402;4.920;2024-01-11T01:45:44;16.70;;;12.25;;
17369;SDS011;8802;52.402;4.920;2024-01-11T01:48:11;15.20;;;12.55;;
17369;SDS011;8802;52.402;4.920;2024-01-11T01:50:38;17.00;;;13.15;;
17369;SDS011;8802;52.402;4.920;2024-01-11T01:53:05;14.73;;;12.48;;
17369;SDS011;8802;52.402;4.920;2024-01-11T01:55:33;17.92;;;13.00;;
17369;SDS011;8802;52.402;4.920;2024-01-11T01:57:59;16.83;;;12.05;;
17369;SDS011;8802;52.402;4.920;2024-01-11T02:00:30;14.38;;;12.02;;
17369;SDS011;8802;52.402;4.920;2024-01-11T02:02:57;15.00;;;11.50;;
17369;SDS011;8802;52.402;4.920;2024-01-11T02:05:24;18.60;;;13.25;;
17369;SDS011;8802;52.402;4.920;2024-01-11T02:07:51;18.00;;;13.52;;
17369;SDS011;8802;52.402;4.920;2024-01-11T02:10:18;15.63;;;12.80;;
17369;SDS011;8802;52.402;4.920;2024-01-11T02:12:45;16.58;;;13.05;;
17369;SDS011;8802;52.402;4.920;2024-01-11T02:15:13;16.50;;;12.45;;
17369;SDS011;8802;52.402;4.920;2024-01-11T02:17:42;14.15;;;11.25;;
17369;SDS011;8802;52.402;4.920;2024-01-11T02:20:09;16.85;;;13.80;;
17369;SDS011;8802;52.402;4.920;2024-01-11T02:22:38;18.35;;;14.40;;
17369;SDS011;8802;52.402;4.920;2024-01-11T02:25:08;18.60;;;13.07;;
17369;SDS011;8802;52.402;4.920;2024-01-11T02:27:44;18.20;;;14.60;;
17369;SDS011;8802;52.402;4.920;2024-01-11T02:30:12;21.33;;;15.40;;
17369;SDS011;8802;52.402;4.920;2024-01-11T02:32:39;17.77;;;14.80;;
17369;SDS011;8802;52.402;4.920;2024-01-11T02:35:06;19.33;;;14.93;;
17369;SDS011;8802;52.402;4.920;2024-01-11T02:37:33;17.45;;;13.93;;
17369;SDS011;8802;52.402;4.920;2024-01-11T02:40:02;21.38;;;16.60;;
17369;SDS011;8802;52.402;4.920;2024-01-11T02:42:31;18.90;;;15.07;;
17369;SDS011;8802;52.402;4.920;2024-01-11T02:44:58;19.83;;;14.82;;
17369;SDS011;8802;52.402;4.920;2024-01-11T02:47:25;20.63;;;15.60;;
17369;SDS011;8802;52.402;4.920;2024-01-11T02:49:52;17.33;;;14.70;;
17369;SDS011;8802;52.402;4.920;2024-01-11T02:52:19;19.02;;;15.30;;
17369;SDS011;8802;52.402;4.920;2024-01-11T02:54:45;19.52;;;15.43;;
17369;SDS011;8802;52.402;4.920;2024-01-11T02:57:12;20.60;;;15.23;;
17369;SDS011;8802;52.402;4.920;2024-01-11T02:59:42;20.45;;;16.00;;
17369;SDS011;8802;52.402;4.920;2024-01-11T03:02:09;17.77;;;14.60;;
17369;SDS011;8802;52.402;4.920;2024-01-11T03:04:36;20.40;;;15.38;;
17369;SDS011;8802;52.402;4.920;2024-01-11T03:07:03;21.20;;;17.25;;
17369;SDS011;8802;52.402;4.920;2024-01-11T03:09:30;20.05;;;16.65;;
17369;SDS011;8802;52.402;4.920;2024-01-11T03:11:57;21.10;;;16.80;;
17369;SDS011;8802;52.402;4.920;2024-01-11T03:14:24;23.70;;;16.50;;
17369;SDS011;8802;52.402;4.920;2024-01-11T03:16:52;22.75;;;17.63;;
17369;SDS011;8802;52.402;4.920;2024-01-11T03:19:19;18.73;;;15.25;;
17369;SDS011;8802;52.402;4.920;2024-01-11T03:21:46;18.98;;;15.13;;
17369;SDS011;8802;52.402;4.920;2024-01-11T03:24:12;21.90;;;16.45;;
17369;SDS011;8802;52.402;4.920;2024-01-11T03:26:40;19.35;;;15.95;;
17369;SDS011;8802;52.402;4.920;2024-01-11T03:29:07;20.58;;;16.40;;
17369;SDS011;8802;52.402;4.920;2024-01-11T03:31:34;19.77;;;16.38;;
17369;SDS011;8802;52.402;4.920;2024-01-11T03:34:04;22.38;;;17.00;;
17369;SDS011;8802;52.402;4.920;2024-01-11T03:36:31;19.88;;;15.20;;
17369;SDS011;8802;52.402;4.920;2024-01-11T03:38:58;19.83;;;15.65;;
17369;SDS011;8802;52.402;4.920;2024-01-11T03:41:24;20.02;;;15.73;;
17369;SDS011;8802;52.402;4.920;2024-01-11T03:43:51;21.77;;;16.10;;
17369;SDS011;8802;52.402;4.920;2024-01-11T03:46:18;20.48;;;15.77;;
17369;SDS011;8802;52.402;4.920;2024-01-11T03:48:45;20.30;;;17.30;;
17369;SDS011;8802;52.402;4.920;2024-01-11T03:51:13;24.85;;;17.85;;
17369;SDS011;8802;52.402;4.920;2024-01-11T03:53:40;23.90;;;18.02;;
17369;SDS011;8802;52.402;4.920;2024-01-11T03:56:07;24.40;;;17.70;;
17369;SDS011;8802;52.402;4.920;2024-01-11T03:58:35;23.63;;;17.88;;
17369;SDS011;8802;52.402;4.920;2024-01-11T04:01:04;21.88;;;16.90;;
17369;SDS011;8802;52.402;4.920;2024-01-11T04:03:32;22.65;;;16.80;;
17369;SDS011;8802;52.402;4.920;2024-01-11T04:05:59;21.73;;;16.77;;
17369;SDS011;8802;52.402;4.920;2024-01-11T04:08:27;23.30;;;17.60;;
17369;SDS011;8802;52.402;4.920;2024-01-11T04:10:54;21.95;;;16.83;;
17369;SDS011;8802;52.402;4.920;2024-01-11T04:13:21;21.25;;;16.85;;
17369;SDS011;8802;52.402;4.920;2024-01-11T04:15:48;20.92;;;17.00;;
17369;SDS011;8802;52.402;4.920;2024-01-11T04:18:14;21.85;;;16.83;;
17369;SDS011;8802;52.402;4.920;2024-01-11T04:20:41;23.63;;;16.85;;
17369;SDS011;8802;52.402;4.920;2024-01-11T04:23:08;20.88;;;16.20;;
17369;SDS011;8802;52.402;4.920;2024-01-11T04:25:36;22.75;;;17.77;;
17369;SDS011;8802;52.402;4.920;2024-01-11T04:28:03;23.08;;;16.90;;
17369;SDS011;8802;52.402;4.920;2024-01-11T04:30:31;23.60;;;17.33;;
17369;SDS011;8802;52.402;4.920;2024-01-11T04:32:57;22.20;;;18.30;;
17369;SDS011;8802;52.402;4.920;2024-01-11T04:35:24;24.60;;;18.10;;
17369;SDS011;8802;52.402;4.920;2024-01-11T04:37:51;22.80;;;17.38;;
17369;SDS011;8802;52.402;4.920;2024-01-11T04:40:18;20.60;;;15.88;;
17369;SDS011;8802;52.402;4.920;2024-01-11T04:42:46;21.90;;;17.10;;
17369;SDS011;8802;52.402;4.920;2024-01-11T04:45:13;24.40;;;16.40;;
17369;SDS011;8802;52.402;4.920;2024-01-11T04:47:40;22.67;;;18.08;;
17369;SDS011;8802;52.402;4.920;2024-01-11T04:50:07;19.33;;;16.45;;
17369;SDS011;8802;52.402;4.920;2024-01-11T04:52:34;20.90;;;16.98;;
17369;SDS011;8802;52.402;4.920;2024-01-11T04:55:01;21.77;;;15.75;;
17369;SDS011;8802;52.402;4.920;2024-01-11T04:57:28;21.52;;;17.48;;
17369;SDS011;8802;52.402;4.920;2024-01-11T04:59:56;21.73;;;17.30;;
17369;SDS011;8802;52.402;4.920;2024-01-11T05:02:23;21.45;;;17.30;;
17369;SDS011;8802;52.402;4.920;2024-01-11T05:04:49;20.23;;;15.93;;
17369;SDS011;8802;52.402;4.920;2024-01-11T05:07:16;21.25;;;16.45;;
17369;SDS011;8802;52.402;4.920;2024-01-11T05:09:43;21.10;;;16.88;;
17369;SDS011;8802;52.402;4.920;2024-01-11T05:12:10;23.30;;;16.83;;
17369;SDS011;8802;52.402;4.920;2024-01-11T05:14:37;19.60;;;15.50;;
17369;SDS011;8802;52.402;4.920;2024-01-11T05:17:05;20.88;;;16.10;;
17369;SDS011;8802;52.402;4.920;2024-01-11T05:19:32;21.10;;;15.70;;
17369;SDS011;8802;52.402;4.920;2024-01-11T05:21:59;19.00;;;15.55;;
17369;SDS011;8802;52.402;4.920;2024-01-11T05:24:26;21.67;;;16.95;;
17369;SDS011;8802;52.402;4.920;2024-01-11T05:26:53;19.17;;;16.65;;
17369;SDS011;8802;52.402;4.920;2024-01-11T05:29:20;20.88;;;15.43;;
17369;SDS011;8802;52.402;4.920;2024-01-11T05:31:47;19.40;;;16.58;;
17369;SDS011;8802;52.402;4.920;2024-01-11T05:34:15;21.55;;;17.30;;
17369;SDS011;8802;52.402;4.920;2024-01-11T05:36:41;21.38;;;16.77;;
17369;SDS011;8802;52.402;4.920;2024-01-11T05:39:08;21.48;;;17.27;;
17369;SDS011;8802;52.402;4.920;2024-01-11T05:41:35;22.50;;;16.58;;
17369;SDS011;8802;52.402;4.920;2024-01-11T05:44:02;20.63;;;16.13;;
17369;SDS011;8802;52.402;4.920;2024-01-11T05:46:29;18.95;;;15.27;;
17369;SDS011;8802;52.402;4.920;2024-01-11T05:48:56;21.02;;;17.33;;
17369;SDS011;8802;52.402;4.920;2024-01-11T05:51:26;19.98;;;15.68;;
17369;SDS011;8802;52.402;4.920;2024-01-11T05:53:55;21.08;;;15.30;;
17369;SDS011;8802;52.402;4.920;2024-01-11T05:56:22;21.75;;;17.15;;
17369;SDS011;8802;52.402;4.920;2024-01-11T05:58:49;22.92;;;17.65;;
17369;SDS011;8802;52.402;4.920;2024-01-11T06:01:16;21.15;;;16.50;;
17369;SDS011;8802;52.402;4.920;2024-01-11T06:03:43;19.67;;;15.80;;
17369;SDS011;8802;52.402;4.920;2024-01-11T06:06:09;21.52;;;17.13;;
17369;SDS011;8802;52.402;4.920;2024-01-11T06:08:38;22.73;;;17.73;;
17369;SDS011;8802;52.402;4.920;2024-01-11T06:11:04;21.75;;;17.85;;
17369;SDS011;8802;52.402;4.920;2024-01-11T06:13:32;23.63;;;17.10;;
17369;SDS011;8802;52.402;4.920;2024-01-11T06:15:59;22.63;;;18.27;;
17369;SDS011;8802;52.402;4.920;2024-01-11T06:18:26;24.77;;;18.23;;
17369;SDS011;8802;52.402;4.920;2024-01-11T06:20:53;22.83;;;16.17;;
17369;SDS011;8802;52.402;4.920;2024-01-11T06:23:20;22.80;;;16.45;;
17369;SDS011;8802;52.402;4.920;2024-01-11T06:25:48;22.33;;;16.50;;
17369;SDS011;8802;52.402;4.920;2024-01-11T06:28:15;21.27;;;15.95;;
17369;SDS011;8802;52.402;4.920;2024-01-11T06:30:41;24.42;;;17.85;;
17369;SDS011;8802;52.402;4.920;2024-01-11T06:33:09;23.00;;;16.95;;
17369;SDS011;8802;52.402;4.920;2024-01-11T06:35:36;22.60;;;17.52;;
17369;SDS011;8802;52.402;4.920;2024-01-11T06:38:03;20.75;;;17.13;;
17369;SDS011;8802;52.402;4.920;2024-01-11T06:40:29;21.73;;;16.48;;
17369;SDS011;8802;52.402;4.920;2024-01-11T06:42:58;21.15;;;16.90;;
17369;SDS011;8802;52.402;4.920;2024-01-11T06:45:24;21.30;;;15.20;;
17369;SDS011;8802;52.402;4.920;2024-01-11T06:47:51;20.23;;;16.88;;
17369;SDS011;8802;52.402;4.920;2024-01-11T06:50:18;20.65;;;16.10;;
17369;SDS011;8802;52.402;4.920;2024-01-11T06:52:45;18.52;;;15.38;;
17369;SDS011;8802;52.402;4.920;2024-01-11T06:55:12;20.70;;;16.67;;
17369;SDS011;8802;52.402;4.920;2024-01-11T06:57:39;23.02;;;19.42;;
17369;SDS011;8802;52.402;4.920;2024-01-11T07:00:08;23.50;;;19.38;;
17369;SDS011;8802;52.402;4.920;2024-01-11T07:02:35;23.52;;;19.65;;
17369;SDS011;8802;52.402;4.920;2024-01-11T07:05:02;23.35;;;18.90;;
17369;SDS011;8802;52.402;4.920;2024-01-11T07:07:29;22.95;;;18.10;;
17369;SDS011;8802;52.402;4.920;2024-01-11T07:09:56;23.15;;;17.95;;
17369;SDS011;8802;52.402;4.920;2024-01-11T07:12:23;21.90;;;17.38;;
17369;SDS011;8802;52.402;4.920;2024-01-11T07:14:50;22.98;;;17.08;;
17369;SDS011;8802;52.402;4.920;2024-01-11T07:17:18;19.92;;;16.33;;
17369;SDS011;8802;52.402;4.920;2024-01-11T07:19:46;19.77;;;15.60;;
17369;SDS011;8802;52.402;4.920;2024-01-11T07:22:12;19.60;;;15.30;;
17369;SDS011;8802;52.402;4.920;2024-01-11T07:24:39;23.75;;;17.05;;
17369;SDS011;8802;52.402;4.920;2024-01-11T07:27:06;20.63;;;16.75;;
17369;SDS011;8802;52.402;4.920;2024-01-11T07:29:33;23.23;;;17.25;;
17369;SDS011;8802;52.402;4.920;2024-01-11T07:32:00;22.15;;;16.85;;
17369;SDS011;8802;52.402;4.920;2024-01-11T07:34:30;22.90;;;18.08;;
17369;SDS011;8802;52.402;4.920;2024-01-11T07:36:57;22.20;;;17.92;;
17369;SDS011;8802;52.402;4.920;2024-01-11T07:39:24;20.10;;;16.70;;
17369;SDS011;8802;52.402;4.920;2024-01-11T07:41:51;21.40;;;17.15;;
17369;SDS011;8802;52.402;4.920;2024-01-11T07:44:18;23.67;;;17.83;;
17369;SDS011;8802;52.402;4.920;2024-01-11T07:46:45;21.23;;;16.15;;
17369;SDS011;8802;52.402;4.920;2024-01-11T07:49:12;21.58;;;17.20;;
17369;SDS011;8802;52.402;4.920;2024-01-11T07:51:41;21.52;;;17.15;;
17369;SDS011;8802;52.402;4.920;2024-01-11T07:54:08;23.10;;;17.48;;
17369;SDS011;8802;52.402;4.920;2024-01-11T07:56:35;20.35;;;17.50;;
17369;SDS011;8802;52.402;4.920;2024-01-11T07:59:02;21.45;;;16.25;;
17369;SDS011;8802;52.402;4.920;2024-01-11T08:01:29;22.88;;;17.70;;
17369;SDS011;8802;52.402;4.920;2024-01-11T08:03:56;20.55;;;17.35;;
17369;SDS011;8802;52.402;4.920;2024-01-11T08:06:23;23.40;;;18.77;;
17369;SDS011;8802;52.402;4.920;2024-01-11T08:08:51;23.30;;;17.85;;
17369;SDS011;8802;52.402;4.920;2024-01-11T08:11:18;19.88;;;16.83;;
17369;SDS011;8802;52.402;4.920;2024-01-11T08:13:45;25.23;;;19.45;;
17369;SDS011;8802;52.402;4.920;2024-01-11T08:16:15;23.17;;;16.63;;
17369;SDS011;8802;52.402;4.920;2024-01-11T08:18:42;23.25;;;18.02;;
17369;SDS011;8802;52.402;4.920;2024-01-11T08:21:10;24.38;;;17.88;;
17369;SDS011;8802;52.402;4.920;2024-01-11T08:23:37;23.02;;;18.05;;
17369;SDS011;8802;52.402;4.920;2024-01-11T08:26:10;21.92;;;17.67;;
17369;SDS011;8802;52.402;4.920;2024-01-11T08:28:37;23.17;;;19.42;;
17369;SDS011;8802;52.402;4.920;2024-01-11T08:31:05;22.88;;;18.35;;
17369;SDS011;8802;52.402;4.920;2024-01-11T08:33:32;22.55;;;17.20;;
17369;SDS011;8802;52.402;4.920;2024-01-11T08:35:58;25.17;;;18.25;;
17369;SDS011;8802;52.402;4.920;2024-01-11T08:38:26;21.85;;;17.73;;
17369;SDS011;8802;52.402;4.920;2024-01-11T08:40:54;23.63;;;18.70;;
17369;SDS011;8802;52.402;4.920;2024-01-11T08:43:22;26.48;;;19.95;;
17369;SDS011;8802;52.402;4.920;2024-01-11T08:45:49;23.15;;;18.05;;
17369;SDS011;8802;52.402;4.920;2024-01-11T08:48:16;22.17;;;18.75;;
17369;SDS011;8802;52.402;4.920;2024-01-11T08:50:43;24.83;;;20.02;;
17369;SDS011;8802;52.402;4.920;2024-01-11T08:53:10;22.02;;;18.77;;
17369;SDS011;8802;52.402;4.920;2024-01-11T08:55:37;24.33;;;19.27;;
17369;SDS011;8802;52.402;4.920;2024-01-11T08:58:04;22.90;;;19.58;;
17369;SDS011;8802;52.402;4.920;2024-01-11T09:00:32;21.25;;;16.35;;
17369;SDS011;8802;52.402;4.920;2024-01-11T09:02:59;20.65;;;17.50;;
17369;SDS011;8802;52.402;4.920;2024-01-11T09:05:26;23.02;;;18.67;;
17369;SDS011;8802;52.402;4.920;2024-01-11T09:07:57;25.75;;;19.00;;
17369;SDS011;8802;52.402;4.920;2024-01-11T09:10:23;24.08;;;19.85;;
17369;SDS011;8802;52.402;4.920;2024-01-11T09:12:50;20.95;;;17.05;;
17369;SDS011;8802;52.402;4.920;2024-01-11T09:15:17;20.98;;;17.40;;
17369;SDS011;8802;52.402;4.920;2024-01-11T09:17:46;21.33;;;17.20;;
17369;SDS011;8802;52.402;4.920;2024-01-11T09:20:12;22.02;;;17.75;;
17369;SDS011;8802;52.402;4.920;2024-01-11T09:22:40;22.25;;;18.55;;
17369;SDS011;8802;52.402;4.920;2024-01-11T09:25:07;21.65;;;18.42;;
17369;SDS011;8802;52.402;4.920;2024-01-11T09:27:34;23.95;;;20.58;;
17369;SDS011;8802;52.402;4.920;2024-01-11T09:30:01;24.88;;;19.67;;
17369;SDS011;8802;52.402;4.920;2024-01-11T09:32:29;26.00;;;20.63;;
17369;SDS011;8802;52.402;4.920;2024-01-11T09:34:57;23.25;;;19.10;;
17369;SDS011;8802;52.402;4.920;2024-01-11T09:37:24;26.70;;;20.98;;
17369;SDS011;8802;52.402;4.920;2024-01-11T09:39:51;26.25;;;20.63;;
17369;SDS011;8802;52.402;4.920;2024-01-11T09:42:18;25.83;;;20.75;;
17369;SDS011;8802;52.402;4.920;2024-01-11T09:44:45;22.58;;;18.00;;
17369;SDS011;8802;52.402;4.920;2024-01-11T09:47:12;23.00;;;18.65;;
17369;SDS011;8802;52.402;4.920;2024-01-11T09:49:42;21.23;;;18.15;;
17369;SDS011;8802;52.402;4.920;2024-01-11T09:52:12;23.10;;;18.08;;
17369;SDS011;8802;52.402;4.920;2024-01-11T09:54:42;24.80;;;19.83;;
17369;SDS011;8802;52.402;4.920;2024-01-11T09:57:09;26.00;;;20.88;;
17369;SDS011;8802;52.402;4.920;2024-01-11T09:59:36;25.10;;;19.88;;
17369;SDS011;8802;52.402;4.920;2024-01-11T10:02:03;21.05;;;17.45;;
17369;SDS011;8802;52.402;4.920;2024-01-11T10:04:33;23.15;;;18.30;;
17369;SDS011;8802;52.402;4.920;2024-01-11T10:07:00;25.95;;;21.60;;
17369;SDS011;8802;52.402;4.920;2024-01-11T10:09:30;23.08;;;18.73;;
17369;SDS011;8802;52.402;4.920;2024-01-11T10:11:57;23.60;;;20.40;;
17369;SDS011;8802;52.402;4.920;2024-01-11T10:14:25;21.50;;;17.77;;
17369;SDS011;8802;52.402;4.920;2024-01-11T10:16:53;22.38;;;17.80;;
17369;SDS011;8802;52.402;4.920;2024-01-11T10:19:21;24.25;;;19.85;;
17369;SDS011;8802;52.402;4.920;2024-01-11T10:21:48;26.52;;;19.83;;
17369;SDS011;8802;52.402;4.920;2024-01-11T10:24:17;23.58;;;19.83;;
17369;SDS011;8802;52.402;4.920;2024-01-11T10:26:46;21.45;;;17.67;;
17369;SDS011;8802;52.402;4.920;2024-01-11T10:29:13;22.60;;;19.02;;
17369;SDS011;8802;52.402;4.920;2024-01-11T10:31:40;21.40;;;18.50;;
17369;SDS011;8802;52.402;4.920;2024-01-11T10:34:07;18.27;;;16.30;;
17369;SDS011;8802;52.402;4.920;2024-01-11T10:36:34;19.40;;;17.13;;
17369;SDS011;8802;52.402;4.920;2024-01-11T10:39:02;20.27;;;16.17;;
17369;SDS011;8802;52.402;4.920;2024-01-11T10:41:32;19.00;;;15.20;;
17369;SDS011;8802;52.402;4.920;2024-01-11T10:44:06;18.33;;;15.90;;
17369;SDS011;8802;52.402;4.920;2024-01-11T10:46:40;19.08;;;14.70;;
17369;SDS011;8802;52.402;4.920;2024-01-11T10:49:09;19.25;;;15.70;;
17369;SDS011;8802;52.402;4.920;2024-01-11T10:51:38;18.75;;;14.90;;
17369;SDS011;8802;52.402;4.920;2024-01-11T10:54:07;17.58;;;15.73;;
17369;SDS011;8802;52.402;4.920;2024-01-11T10:56:34;19.30;;;15.32;;
17369;SDS011;8802;52.402;4.920;2024-01-11T10:59:05;16.95;;;14.65;;
17369;SDS011;8802;52.402;4.920;2024-01-11T11:01:33;20.10;;;13.15;;
17369;SDS011;8802;52.402;4.920;2024-01-11T11:04:00;15.98;;;13.88;;
17369;SDS011;8802;52.402;4.920;2024-01-11T11:06:28;16.13;;;13.63;;
17369;SDS011;8802;52.402;4.920;2024-01-11T11:08:56;15.02;;;13.43;;
17369;SDS011;8802;52.402;4.920;2024-01-11T11:11:24;15.10;;;13.00;;
17369;SDS011;8802;52.402;4.920;2024-01-11T11:13:52;15.52;;;13.30;;
17369;SDS011;8802;52.402;4.920;2024-01-11T11:16:21;15.65;;;14.00;;
17369;SDS011;8802;52.402;4.920;2024-01-11T11:18:50;14.95;;;12.45;;
17369;SDS011;8802;52.402;4.920;2024-01-11T11:21:20;15.25;;;12.38;;
17369;SDS011;8802;52.402;4.920;2024-01-11T11:23:50;15.10;;;13.05;;
17369;SDS011;8802;52.402;4.920;2024-01-11T11:26:17;15.13;;;12.80;;
17369;SDS011;8802;52.402;4.920;2024-01-11T11:28:44;14.45;;;12.93;;
17369;SDS011;8802;52.402;4.920;2024-01-11T11:31:11;15.82;;;12.25;;
17369;SDS011;8802;52.402;4.920;2024-01-11T11:33:40;13.50;;;11.75;;
17369;SDS011;8802;52.402;4.920;2024-01-11T11:36:09;16.20;;;11.70;;
17369;SDS011;8802;52.402;4.920;2024-01-11T11:38:39;13.18;;;11.45;;
17369;SDS011;8802;52.402;4.920;2024-01-11T11:41:06;13.02;;;11.18;;
17369;SDS011;8802;52.402;4.920;2024-01-11T11:43:33;11.88;;;9.95;;
17369;SDS011;8802;52.402;4.920;2024-01-11T11:46:01;11.55;;;10.35;;
17369;SDS011;8802;52.402;4.920;2024-01-11T11:48:49;11.35;;;9.88;;
17369;SDS011;8802;52.402;4.920;2024-01-11T11:51:21;13.73;;;11.70;;
17369;SDS011;8802;52.402;4.920;2024-01-11T11:53:48;12.02;;;9.70;;
17369;SDS011;8802;52.402;4.920;2024-01-11T11:56:16;12.57;;;10.65;;
17369;SDS011;8802;52.402;4.920;2024-01-11T11:58:45;13.82;;;10.73;;
17369;SDS011;8802;52.402;4.920;2024-01-11T12:01:13;12.40;;;11.10;;
17369;SDS011;8802;52.402;4.920;2024-01-11T12:03:42;11.30;;;10.10;;
17369;SDS011;8802;52.402;4.920;2024-01-11T12:06:15;12.07;;;10.32;;
17369;SDS011;8802;52.402;4.920;2024-01-11T12:08:44;11.80;;;10.27;;
17369;SDS011;8802;52.402;4.920;2024-01-11T12:11:14;12.25;;;10.05;;
17369;SDS011;8802;52.402;4.920;2024-01-11T12:13:41;15.48;;;10.60;;
17369;SDS011;8802;52.402;4.920;2024-01-11T12:16:09;11.02;;;9.20;;
17369;SDS011;8802;52.402;4.920;2024-01-11T12:18:37;10.73;;;9.65;;
17369;SDS011;8802;52.402;4.920;2024-01-11T12:21:04;11.80;;;8.82;;
17369;SDS011;8802;52.402;4.920;2024-01-11T12:23:34;11.48;;;10.27;;
17369;SDS011;8802;52.402;4.920;2024-01-11T12:26:01;9.85;;;8.80;;
17369;SDS011;8802;52.402;4.920;2024-01-11T12:28:30;11.00;;;9.02;;
17369;SDS011;8802;52.402;4.920;2024-01-11T12:30:58;9.40;;;8.35;;
17369;SDS011;8802;52.402;4.920;2024-01-11T12:33:25;9.98;;;8.30;;
17369;SDS011;8802;52.402;4.920;2024-01-11T12:35:53;9.77;;;8.73;;
17369;SDS011;8802;52.402;4.920;2024-01-11T12:38:20;9.90;;;8.82;;
17369;SDS011;8802;52.402;4.920;2024-01-11T12:40:48;9.32;;;8.18;;
17369;SDS011;8802;52.402;4.920;2024-01-11T12:43:15;9.85;;;8.68;;
17369;SDS011;8802;52.402;4.920;2024-01-11T12:45:43;10.43;;;8.90;;
17369;SDS011;8802;52.402;4.920;2024-01-11T12:48:10;9.82;;;8.77;;
17369;SDS011;8802;52.402;4.920;2024-01-11T12:50:39;9.85;;;8.20;;
17369;SDS011;8802;52.402;4.920;2024-01-11T12:53:07;9.20;;;8.02;;
17369;SDS011;8802;52.402;4.920;2024-01-11T12:55:37;9.68;;;8.25;;
17369;SDS011;8802;52.402;4.920;2024-01-11T12:58:06;8.98;;;6.90;;
17369;SDS011;8802;52.402;4.920;2024-01-11T13:00:34;8.23;;;7.13;;
17369;SDS011;8802;52.402;4.920;2024-01-11T13:03:02;7.32;;;6.60;;
17369;SDS011;8802;52.402;4.920;2024-01-11T13:05:29;8.32;;;7.45;;
17369;SDS011;8802;52.402;4.920;2024-01-11T13:07:59;8.85;;;7.15;;
17369;SDS011;8802;52.402;4.920;2024-01-11T13:10:28;9.45;;;8.18;;
17369;SDS011;8802;52.402;4.920;2024-01-11T13:12:55;9.38;;;8.40;;
17369;SDS011;8802;52.402;4.920;2024-01-11T13:15:26;9.30;;;8.30;;
17369;SDS011;8802;52.402;4.920;2024-01-11T13:17:54;10.02;;;8.13;;
17369;SDS011;8802;52.402;4.920;2024-01-11T13:20:21;10.75;;;9.32;;
17369;SDS011;8802;52.402;4.920;2024-01-11T13:22:48;11.20;;;8.93;;
17369;SDS011;8802;52.402;4.920;2024-01-11T13:25:16;11.45;;;7.78;;
17369;SDS011;8802;52.402;4.920;2024-01-11T13:27:43;10.75;;;8.75;;
17369;SDS011;8802;52.402;4.920;2024-01-11T13:30:10;9.98;;;8.68;;
17369;SDS011;8802;52.402;4.920;2024-01-11T13:32:40;11.18;;;8.40;;
17369;SDS011;8802;52.402;4.920;2024-01-11T13:35:07;9.80;;;8.80;;
17369;SDS011;8802;52.402;4.920;2024-01-11T13:37:34;14.00;;;9.52;;
17369;SDS011;8802;52.402;4.920;2024-01-11T13:40:01;9.70;;;8.70;;
17369;SDS011;8802;52.402;4.920;2024-01-11T13:42:28;13.88;;;9.75;;
17369;SDS011;8802;52.402;4.920;2024-01-11T13:44:55;11.43;;;9.65;;
17369;SDS011;8802;52.402;4.920;2024-01-11T13:47:22;9.98;;;8.95;;
17369;SDS011;8802;52.402;4.920;2024-01-11T13:49:50;11.30;;;9.98;;
17369;SDS011;8802;52.402;4.920;2024-01-11T13:52:17;11.55;;;9.85;;
17369;SDS011;8802;52.402;4.920;2024-01-11T13:54:44;9.38;;;8.43;;
17369;SDS011;8802;52.402;4.920;2024-01-11T13:57:11;10.32;;;9.20;;
17369;SDS011;8802;52.402;4.920;2024-01-11T13:59:38;9.55;;;8.57;;
17369;SDS011;8802;52.402;4.920;2024-01-11T14:02:05;11.00;;;9.88;;
17369;SDS011;8802;52.402;4.920;2024-01-11T14:04:32;10.38;;;9.20;;
17369;SDS011;8802;52.402;4.920;2024-01-11T14:07:00;9.85;;;8.15;;
17369;SDS011;8802;52.402;4.920;2024-01-11T14:09:28;8.32;;;7.53;;
17369;SDS011;8802;52.402;4.920;2024-01-11T14:11:55;9.40;;;8.50;;
17369;SDS011;8802;52.402;4.920;2024-01-11T14:14:22;10.20;;;7.63;;
17369;SDS011;8802;52.402;4.920;2024-01-11T14:16:49;8.95;;;8.05;;
17369;SDS011;8802;52.402;4.920;2024-01-11T14:19:16;10.23;;;7.75;;
17369;SDS011;8802;52.402;4.920;2024-01-11T14:21:43;10.93;;;8.38;;
17369;SDS011;8802;52.402;4.920;2024-01-11T14:24:12;9.90;;;8.13;;
17369;SDS011;8802;52.402;4.920;2024-01-11T14:26:39;10.48;;;7.38;;
17369;SDS011;8802;52.402;4.920;2024-01-11T14:29:06;11.82;;;7.90;;
17369;SDS011;8802;52.402;4.920;2024-01-11T14:31:32;9.60;;;8.60;;
17369;SDS011;8802;52.402;4.920;2024-01-11T14:33:59;9.43;;;7.53;;
17369;SDS011;8802;52.402;4.920;2024-01-11T14:36:26;8.98;;;6.45;;
17369;SDS011;8802;52.402;4.920;2024-01-11T14:38:53;10.60;;;7.57;;